Time;durP1;ratioP1;P1;durP2;ratioP2;P2;SDS_P1;SDS_P2;PMS_P1;PMS_P2;Temp;Humidity;BMP_temperature;BMP_pressure;BME280_temperature;BME280_humidity;BME280_pressure;Samples;Min_cycle;Max_cycle;Signal;HPM_P1;HPM_P2
2022/06/21 00:02:02;;;;;;;12.15;8.57;;;;;;;7.80;95.42;101534.66;10471020;28;20063;-79
2022/06/21 00:07:03;;;;;;;13.68;8.48;;;;;;;7.75;95.73;101546.47;10453184;28;20049;-79
2022/06/21 00:12:05;;;;;;;13.32;8.00;;;;;;;7.69;95.83;101551.25;10470244;28;20050;-79
2022/06/21 00:17:05;;;;;;;12.48;7.47;;;;;;;7.59;95.53;101544.50;10470610;28;20043;-79
2022/06/21 00:22:18;;;;;;;15.15;10.20;;;;;;;7.48;94.62;101543.72;10428709;28;20041;-79
2022/06/21 00:27:20;;;;;;;18.88;10.65;;;;;;;7.41;95.28;101529.38;10410362;28;20078;-79
2022/06/21 00:32:21;;;;;;;;;;;;;;;7.38;95.63;101517.84;10445664;28;20492;-79
2022/06/21 00:37:21;;;;;;;14.77;9.68;;;;;;;7.35;96.99;101508.13;10485457;28;19920;-79
2022/06/21 00:42:28;;;;;;;16.90;9.68;;;;;;;7.31;96.98;101524.31;10433925;28;20044;-79
2022/06/21 00:47:33;;;;;;;15.07;11.52;;;;;;;7.25;97.18;101519.56;10452733;28;20110;-79
2022/06/21 00:52:45;;;;;;;28.67;11.77;;;;;;;7.20;97.28;101513.13;10445687;28;20044;-79
2022/06/21 00:57:52;;;;;;;14.50;10.95;;;;;;;7.13;98.04;101488.38;10452657;28;20128;-79
2022/06/21 01:02:53;;;;;;;16.92;10.60;;;;;;;7.08;97.51;101492.34;10452741;28;21073;-79
2022/06/21 01:07:54;;;;;;;21.65;11.43;;;;;;;7.15;99.20;101488.47;10428821;28;20083;-79
2022/06/21 01:12:57;;;;;;;17.27;12.60;;;;;;;7.11;98.99;101496.84;10404399;28;20037;-79
2022/06/21 01:18:00;;;;;;;20.38;14.10;;;;;;;7.06;98.98;101499.13;10446247;28;20090;-79
2022/06/21 01:23:10;;;;;;;21.00;13.00;;;;;;;7.05;98.49;101494.72;10437702;28;20481;-79
2022/06/21 01:28:11;;;;;;;22.33;13.80;;;;;;;7.01;98.49;101506.59;10444673;28;20041;-79
2022/06/21 01:33:13;;;;;;;21.38;11.15;;;;;;;6.90;98.30;101498.03;10412163;28;20056;-78
2022/06/21 01:38:21;;;;;;;19.05;11.63;;;;;;;6.84;98.82;101492.38;10422958;28;20045;-79
2022/06/21 01:43:24;;;;;;;18.90;11.77;;;;;;;6.84;98.55;101484.56;10459237;28;20044;-78
2022/06/21 01:48:26;;;;;;;20.90;14.77;;;;;;;6.85;98.91;101494.19;10448041;28;20484;-78
2022/06/21 01:53:27;;;;;;;21.45;14.18;;;;;;;6.82;99.02;101488.75;10428230;28;20131;-79
2022/06/21 01:58:32;;;;;;;19.10;14.52;;;;;;;6.81;100.00;101480.81;10397635;28;20511;-78
2022/06/21 02:03:34;;;;;;;30.77;16.80;;;;;;;6.83;100.00;101484.44;10414628;28;20056;-78
2022/06/21 02:08:43;;;;;;;19.33;15.38;;;;;;;6.72;99.97;101474.16;10449592;28;20051;-78
2022/06/21 02:14:28;;;;;;;24.33;14.48;;;;;;;6.83;100.00;101479.22;10446124;28;20601;-78
2022/06/21 02:19:26;;;;;;;19.52;14.25;;;;;;;6.81;100.00;101493.84;10414206;28;20067;-78
2022/06/21 02:24:29;;;;;;;21.25;14.70;;;;;;;6.87;100.00;101497.81;10439558;28;20045;-78
2022/06/21 02:29:29;;;;;;;22.35;16.92;;;;;;;6.90;100.00;101489.28;10449258;28;20040;-78
2022/06/21 02:34:35;;;;;;;21.88;15.20;;;;;;;6.78;100.00;101465.91;10449362;28;20040;-78
2022/06/21 02:39:36;;;;;;;26.40;14.50;;;;;;;6.57;100.00;101452.22;10464155;28;20365;-78
2022/06/21 02:44:42;;;;;;;24.65;15.35;;;;;;;6.44;100.00;101438.31;10424649;28;20056;-78
2022/06/21 02:49:56;;;;;;;17.65;14.75;;;;;;;6.26;100.00;101442.16;10418898;28;20543;-78
2022/06/21 02:55:20;;;;;;;21.50;13.10;;;;;;;5.97;100.00;101433.97;10464554;28;20043;-78
2022/06/21 03:00:21;;;;;;;21.17;13.20;;;;;;;5.83;100.00;101439.81;10481824;28;20043;-78
2022/06/21 03:05:25;;;;;;;26.80;16.63;;;;;;;5.93;100.00;101433.63;10428411;28;20591;-78
2022/06/21 03:10:28;;;;;;;21.90;14.55;;;;;;;5.85;100.00;101438.25;10464361;28;20119;-78
2022/06/21 03:15:29;;;;;;;20.83;14.30;;;;;;;5.72;100.00;101444.19;10447617;28;20068;-78
2022/06/21 03:20:29;;;;;;;26.05;16.05;;;;;;;5.68;100.00;101450.84;10482991;28;20606;-78
2022/06/21 03:25:41;;;;;;;24.80;16.58;;;;;;;5.72;100.00;101457.16;10430729;28;20037;-79
2022/06/21 03:30:42;;;;;;;24.08;16.83;;;;;;;5.88;100.00;101467.06;10463972;28;20036;-79
2022/06/21 03:35:42;;;;;;;33.03;17.00;;;;;;;5.86;100.00;101460.84;10464870;28;20055;-79
2022/06/21 03:46:05;;;;;;;27.35;18.40;;;;;;;6.03;100.00;101456.94;10444030;28;20072;-79
2022/06/21 03:51:08;;;;;;;27.67;17.92;;;;;;;6.09;100.00;101470.41;10411288;28;20109;-78
2022/06/21 03:56:26;;;;;;;21.73;15.10;;;;;;;6.17;100.00;101455.41;10455398;28;20040;-79
2022/06/21 04:01:45;;;;;;;26.83;16.48;;;;;;;6.31;100.00;101456.41;10471717;28;20083;-78
2022/06/21 04:06:52;;;;;;;25.20;15.32;;;;;;;6.42;100.00;101460.72;10468772;28;20097;-79
2022/06/21 04:11:55;;;;;;;24.70;16.73;;;;;;;6.50;100.00;101445.69;10471629;28;20135;-79
2022/06/21 04:17:00;;;;;;;27.85;16.25;;;;;;;6.49;100.00;101440.34;10470568;28;20098;-78
2022/06/21 04:22:07;;;;;;;28.05;18.52;;;;;;;6.70;100.00;101454.03;10429265;28;20033;-79
2022/06/21 04:27:16;;;;;;;32.03;18.50;;;;;;;7.29;100.00;101439.97;10412552;28;20195;-78
2022/06/21 04:32:31;;;;;;;25.48;17.65;;;;;;;7.81;100.00;101436.56;10413511;28;20503;-79
2022/06/21 04:37:42;;;;;;;31.70;17.02;;;;;;;8.60;100.00;101429.66;10453760;28;20085;-79
2022/06/21 04:43:22;;;;;;;20.88;13.73;;;;;;;8.81;100.00;101424.00;10468336;28;20058;-79
2022/06/21 04:48:43;;;;;;;18.08;11.73;;;;;;;8.93;100.00;101426.47;10421726;28;20447;-79
2022/06/21 04:53:49;;;;;;;17.85;13.85;;;;;;;9.52;100.00;101411.81;10454273;28;20044;-79
2022/06/21 04:58:50;;;;;;;15.02;11.05;;;;;;;9.85;100.00;101409.41;10450901;28;20044;-78
2022/06/21 05:03:51;;;;;;;15.68;9.07;;;;;;;10.54;100.00;101406.41;10443328;28;20040;-79
2022/06/21 05:08:51;;;;;;;12.32;8.55;;;;;;;11.20;92.60;101411.75;10436798;28;20044;-79
2022/06/21 05:13:54;;;;;;;20.40;8.93;;;;;;;12.63;84.00;101408.47;10411077;28;20572;-77
2022/06/21 05:19:03;;;;;;;14.23;6.70;;;;;;;14.02;75.74;101402.41;10391024;28;20037;-78
2022/06/21 05:24:04;;;;;;;10.27;5.93;;;;;;;15.00;71.45;101399.31;10398197;28;20453;-80
2022/06/21 05:29:26;;;;;;;9.07;5.75;;;;;;;16.31;63.96;101395.97;10400896;28;20033;-79
2022/06/21 05:34:33;;;;;;;8.48;4.00;;;;;;;16.92;62.11;101388.16;10386146;28;20132;-79
2022/06/21 05:39:40;;;;;;;14.77;4.13;;;;;;;17.90;56.94;101391.78;10442308;28;20095;-78
2022/06/21 05:45:09;;;;;;;12.70;3.97;;;;;;;18.73;54.89;101386.72;10424290;28;20517;-80
2022/06/21 05:50:18;;;;;;;7.03;4.00;;;;;;;19.05;53.60;101410.41;10421087;28;20041;-79
2022/06/21 05:55:31;;;;;;;6.32;3.85;;;;;;;19.68;52.66;101402.81;10423503;28;20548;-80
2022/06/21 06:00:56;;;;;;;8.77;3.33;;;;;;;20.30;49.25;101409.22;10429673;28;20431;-80
2022/06/21 06:05:57;;;;;;;5.57;3.05;;;;;;;20.85;47.77;101408.28;10426755;28;20076;-80
2022/06/21 06:10:58;;;;;;;8.93;5.17;;;;;;;20.57;48.75;101422.91;10409422;28;20122;-82
2022/06/21 06:16:02;;;;;;;6.68;3.38;;;;;;;20.61;48.59;101416.75;10409288;28;20043;-81
2022/06/21 06:21:19;;;;;;;8.27;3.88;;;;;;;21.69;46.54;101409.31;10407084;28;20037;-83
2022/06/21 06:26:24;;;;;;;8.10;3.60;;;;;;;23.18;42.45;101418.41;10467785;28;20392;-79
2022/06/21 06:31:32;;;;;;;5.30;2.45;;;;;;;23.08;41.35;101429.91;10469534;28;20510;-79
2022/06/21 06:36:38;;;;;;;7.65;4.10;;;;;;;22.95;42.10;101431.63;10427541;28;20190;-78
2022/06/21 06:42:07;;;;;;;7.03;3.00;;;;;;;22.78;42.55;101423.53;10463638;28;20036;-78
2022/06/21 06:47:14;;;;;;;9.50;3.10;;;;;;;23.50;40.70;101420.31;10464063;28;20119;-78
2022/06/21 06:52:19;;;;;;;6.18;3.42;;;;;;;23.44;41.89;101418.50;10447345;28;20036;-79
2022/06/21 06:57:30;;;;;;;4.80;2.80;;;;;;;24.08;38.97;101421.31;10422486;28;20045;-78
2022/06/21 07:02:36;;;;;;;6.30;2.70;;;;;;;23.45;40.17;101420.28;10422445;28;20072;-79
2022/06/21 07:07:47;;;;;;;9.30;3.30;;;;;;;22.54;41.36;101411.81;10426010;28;20124;-79
2022/06/21 07:12:49;;;;;;;9.37;3.63;;;;;;;22.40;42.49;101409.91;10440300;28;20049;-78
2022/06/21 07:17:54;;;;;;;5.38;2.67;;;;;;;21.71;43.08;101408.44;10429531;28;20037;-79
2022/06/21 07:22:58;;;;;;;6.75;3.35;;;;;;;22.78;44.33;101408.41;10445432;28;20087;-80
2022/06/21 07:28:18;;;;;;;7.68;4.00;;;;;;;23.61;39.40;101414.97;10454671;28;20395;-84
2022/06/21 07:33:31;;;;;;;6.72;3.83;;;;;;;23.61;38.66;101429.25;10442111;28;20028;-85
2022/06/21 07:38:58;;;;;;;4.97;2.63;;;;;;;23.17;39.16;101443.31;10448503;28;20439;-85
2022/06/21 07:44:10;;;;;;;4.43;2.22;;;;;;;24.56;37.94;101429.28;10490575;28;20032;-84
2022/06/21 07:49:29;;;;;;;5.55;2.90;;;;;;;25.40;35.65;101404.94;10444301;28;20029;-85
2022/06/21 07:54:35;;;;;;;5.28;2.67;;;;;;;26.07;36.04;101410.75;10463697;28;20037;-85
2022/06/21 07:59:38;;;;;;;7.32;2.85;;;;;;;24.75;36.82;101406.13;10437538;28;20037;-80
2022/06/21 08:10:29;;;;;;;8.60;3.30;;;;;;;25.66;33.49;101379.78;10485886;28;20052;-85
2022/06/21 08:15:32;;;;;;;9.30;2.85;;;;;;;24.86;35.80;101395.34;10472660;28;20399;-82
2022/06/21 08:20:42;;;;;;;5.78;2.60;;;;;;;26.05;32.82;101376.81;10469345;28;20071;-80
2022/06/21 08:26:09;;;;;;;6.65;3.33;;;;;;;25.31;33.99;101368.38;10452596;28;20405;-84
2022/06/21 08:31:12;;;;;;;6.53;2.30;;;;;;;26.04;33.70;101348.22;10467578;28;20040;-82
2022/06/21 08:36:19;;;;;;;4.88;2.78;;;;;;;26.48;33.08;101343.31;10396150;28;20052;-82
2022/06/21 08:41:55;;;;;;;5.90;2.63;;;;;;;24.58;35.56;101336.53;10420125;28;20518;-81
2022/06/21 08:47:04;;;;;;;4.85;2.10;;;;;;;26.26;32.83;101322.09;10458988;28;20041;-82
2022/06/21 08:52:13;;;;;;;3.58;2.67;;;;;;;26.77;31.50;101318.84;10445078;28;20044;-82
2022/06/21 08:57:39;;;;;;;5.68;2.60;;;;;;;24.52;35.00;101315.16;10485226;28;20123;-84
2022/06/21 09:02:57;;;;;;;6.05;2.42;;;;;;;22.51;39.41;101314.00;10449986;28;20495;-83
2022/06/21 09:08:10;;;;;;;9.70;3.03;;;;;;;22.56;39.43;101295.38;10483416;28;20110;-82
2022/06/21 09:13:30;;;;;;;7.32;2.70;;;;;;;23.99;37.79;101276.94;10485389;28;20090;-82
2022/06/21 09:19:02;;;;;;;7.40;2.47;;;;;;;25.65;33.34;101265.44;10485826;28;20041;-81
2022/06/21 09:24:30;;;;;;;6.00;2.72;;;;;;;25.36;33.57;101266.56;10444503;28;20476;-81
2022/06/21 09:29:34;;;;;;;6.78;2.85;;;;;;;24.23;36.77;101265.31;10465118;28;20051;-83
2022/06/21 09:34:53;;;;;;;9.38;3.22;;;;;;;25.02;34.21;101261.44;10410588;28;20132;-85
2022/06/21 09:40:03;;;;;;;10.23;2.55;;;;;;;24.28;36.35;101278.69;10469256;28;20051;-83
2022/06/21 09:45:12;;;;;;;5.50;2.60;;;;;;;23.31;37.80;101273.38;10484992;28;20036;-83
2022/06/21 09:50:54;;;;;;;6.38;2.80;;;;;;;23.57;37.78;101274.28;10467732;28;20029;-84
2022/06/21 09:56:06;;;;;;;;;;;;;;;25.17;33.87;101264.00;10466872;28;20055;-84
2022/06/21 10:01:44;;;;;;;4.90;2.65;;;;;;;23.90;37.06;101256.44;10485409;28;19921;-80
2022/06/21 10:07:23;;;;;;;6.95;2.70;;;;;;;23.11;38.46;101257.28;10466059;28;20064;-80
2022/06/21 10:12:35;;;;;;;7.45;3.28;;;;;;;23.16;39.10;101271.53;10470415;28;20079;-81
2022/06/21 10:17:40;;;;;;;8.10;3.22;;;;;;;22.84;39.44;101283.03;10475873;28;20102;-80
2022/06/21 10:23:10;;;;;;;5.35;3.13;;;;;;;22.69;38.85;101281.22;10421783;28;20033;-81
2022/06/21 10:28:17;;;;;;;6.03;3.90;;;;;;;22.29;38.45;101283.66;10429799;28;20037;-81
2022/06/21 10:33:50;;;;;;;5.68;3.28;;;;;;;22.07;38.39;101272.84;10425405;28;20131;-81
2022/06/21 10:39:02;;;;;;;8.77;2.97;;;;;;;21.92;40.10;101278.09;10394904;28;20063;-84
2022/06/21 10:44:08;;;;;;;6.75;3.75;;;;;;;22.61;40.48;101268.72;10407449;28;20049;-82
2022/06/21 10:49:25;;;;;;;4.55;3.00;;;;;;;22.81;38.96;101280.34;10442096;28;20040;-85
2022/06/21 10:54:38;;;;;;;6.88;4.25;;;;;;;22.63;40.62;101282.94;10406978;28;20646;-81
2022/06/21 11:05:16;;;;;;;13.45;3.60;;;;;;;22.41;42.14;101282.81;10439047;28;20071;-82
2022/06/21 11:10:28;;;;;;;4.57;2.95;;;;;;;22.33;41.36;101281.88;10465413;28;20040;-82
2022/06/21 11:15:28;;;;;;;5.85;2.85;;;;;;;22.55;39.23;101282.94;10431958;28;20036;-82
2022/06/21 11:20:52;;;;;;;5.10;3.07;;;;;;;22.57;38.48;101273.16;10481954;28;20048;-83
2022/06/21 11:26:07;;;;;;;6.63;3.05;;;;;;;22.81;38.35;101268.78;10471871;28;20565;-83
2022/06/21 11:31:10;;;;;;;5.15;2.30;;;;;;;23.24;37.20;101268.03;10450000;28;20078;-82
2022/06/21 11:36:21;;;;;;;6.93;4.18;;;;;;;24.23;38.54;101276.00;10484721;28;20044;-82
2022/06/21 11:47:14;;;;;;;8.48;3.55;;;;;;;26.48;33.52;101257.47;10461243;28;20041;-82
2022/06/21 11:52:23;;;;;;;5.22;3.00;;;;;;;27.41;29.67;101246.31;10449467;28;20399;-83
2022/06/21 11:57:42;;;;;;;8.40;3.58;;;;;;;25.40;33.84;101249.56;10418965;28;20488;-81
2022/06/21 12:02:58;;;;;;;4.00;2.75;;;;;;;24.44;35.37;101252.75;10439323;28;20496;-82
2022/06/21 12:08:10;;;;;;;7.00;2.95;;;;;;;24.56;33.57;101258.06;10433848;28;20039;-81
2022/06/21 12:13:17;;;;;;;7.22;3.13;;;;;;;24.91;35.89;101240.97;10463942;28;20438;-81
2022/06/21 12:18:26;;;;;;;6.07;2.75;;;;;;;27.24;31.11;101248.38;10485281;28;20518;-81
2022/06/21 12:23:41;;;;;;;7.00;2.88;;;;;;;27.21;32.89;101240.38;10465160;28;20081;-81
2022/06/21 12:28:42;;;;;;;14.77;2.42;;;;;;;26.27;33.46;101242.53;10443617;28;20036;-81
2022/06/21 12:33:44;;;;;;;7.63;4.97;;;;;;;26.10;31.36;101241.78;10444154;28;20048;-81
2022/06/21 12:38:51;;;;;;;7.55;3.78;;;;;;;26.46;32.60;101222.59;10419104;28;20040;-81
2022/06/21 12:44:19;;;;;;;5.57;2.42;;;;;;;27.15;29.99;101221.66;10452514;28;20039;-80
2022/06/21 12:49:22;;;;;;;13.40;3.67;;;;;;;28.11;29.74;101215.47;10442888;28;20048;-81
2022/06/21 12:54:54;;;;;;;9.20;3.90;;;;;;;28.49;29.82;101203.97;10478724;28;20041;-80
2022/06/21 13:00:18;;;;;;;5.38;3.08;;;;;;;26.73;29.51;101204.34;10435855;28;20037;-81
2022/06/21 13:05:32;;;;;;;9.75;3.50;;;;;;;25.86;31.64;101200.03;10471492;28;20135;-82
2022/06/21 13:10:44;;;;;;;9.07;3.42;;;;;;;26.72;28.69;101189.16;10426209;28;20496;-80
2022/06/21 13:16:12;;;;;;;8.82;3.70;;;;;;;27.76;29.03;101183.91;10396923;28;20135;-82
2022/06/21 13:21:13;;;;;;;8.07;3.75;;;;;;;27.06;29.83;101193.13;10441644;28;20041;-80
2022/06/21 13:26:21;;;;;;;6.70;2.80;;;;;;;25.16;31.57;101189.06;10445430;28;20044;-82
2022/06/21 13:31:42;;;;;;;4.80;2.08;;;;;;;23.14;33.47;101195.91;10450977;28;20040;-81
2022/06/21 13:36:50;;;;;;;5.32;2.42;;;;;;;22.44;36.40;101200.16;10466521;28;20094;-82
2022/06/21 13:47:53;;;;;;;5.75;2.40;;;;;;;22.18;36.58;101190.28;10470638;28;20450;-83
2022/06/21 13:53:00;;;;;;;8.60;3.03;;;;;;;22.35;37.61;101182.38;10409523;28;20520;-82
2022/06/21 13:58:32;;;;;;;5.60;2.08;;;;;;;22.85;39.02;101177.19;10427431;28;20081;-83
2022/06/21 14:03:53;;;;;;;4.18;2.25;;;;;;;23.70;35.02;101173.66;10484818;28;20044;-82
2022/06/21 14:09:19;;;;;;;6.43;2.30;;;;;;;25.07;34.09;101157.88;10467199;28;20047;-82
2022/06/21 14:14:41;;;;;;;4.30;2.33;;;;;;;25.27;32.99;101154.13;10410564;28;20041;-81
2022/06/21 14:19:44;;;;;;;;;;;;;;;25.56;32.66;101153.00;10431274;28;20040;-81
2022/06/21 14:25:17;;;;;;;5.32;2.10;;;;;;;25.00;33.13;101134.72;10443684;28;20280;-82
2022/06/21 14:30:31;;;;;;;8.27;2.28;;;;;;;24.08;34.72;101132.59;10422964;28;20037;-82
2022/06/21 14:35:43;;;;;;;9.77;2.50;;;;;;;23.79;36.99;101127.31;10413530;28;20128;-82
2022/06/21 14:40:50;;;;;;;6.32;2.88;;;;;;;23.32;38.28;101130.06;10368796;28;20123;-83
2022/06/21 14:46:17;;;;;;;6.07;2.80;;;;;;;23.15;37.46;101116.72;10450290;28;20029;-82
2022/06/21 14:51:47;;;;;;;11.55;4.15;;;;;;;23.37;37.69;101114.94;10435279;28;20048;-82
2022/06/21 14:56:56;;;;;;;7.57;2.72;;;;;;;23.59;37.35;101110.44;10443349;28;20099;-84
2022/06/21 15:02:39;;;;;;;9.32;3.20;;;;;;;23.62;36.53;101104.19;10443192;28;20099;-82
2022/06/21 15:07:54;;;;;;;11.48;3.25;;;;;;;24.06;37.26;101096.97;10443099;28;20069;-83
2022/06/21 15:13:05;;;;;;;9.10;3.47;;;;;;;24.15;36.98;101096.00;10380510;28;20030;-83
2022/06/21 15:18:07;;;;;;;7.05;3.35;;;;;;;24.51;36.35;101083.31;10383853;28;20092;-84
2022/06/21 15:23:13;;;;;;;10.77;4.45;;;;;;;24.74;36.44;101084.97;10397966;28;20037;-83
2022/06/21 15:28:21;;;;;;;23.08;4.88;;;;;;;24.28;37.52;101089.69;10400829;28;20115;-84
2022/06/21 15:33:48;;;;;;;7.90;3.83;;;;;;;23.41;37.81;101078.44;10397450;28;20037;-81
2022/06/21 15:38:56;;;;;;;12.25;3.50;;;;;;;22.77;39.95;101069.59;10392238;28;20129;-81
2022/06/21 15:44:27;;;;;;;9.57;3.53;;;;;;;22.68;41.01;101070.44;10316304;28;20096;-81
2022/06/21 15:55:11;;;;;;;7.82;2.85;;;;;;;21.86;40.72;101065.78;10326885;28;20046;-81
2022/06/21 16:00:36;;;;;;;11.43;4.03;;;;;;;21.34;43.27;101064.59;10326835;28;20382;-82
2022/06/21 16:05:48;;;;;;;9.20;3.72;;;;;;;21.16;43.47;101073.38;10367416;28;20046;-82
2022/06/21 16:10:49;;;;;;;9.05;3.28;;;;;;;21.10;44.72;101076.84;10373466;28;20111;-83
2022/06/21 16:16:01;;;;;;;6.70;2.28;;;;;;;21.34;43.78;101085.91;10381741;28;20091;-82
2022/06/21 16:21:31;;;;;;;6.97;3.53;;;;;;;21.38;43.73;101087.69;10470179;28;20048;-79
2022/06/21 16:26:38;;;;;;;10.25;2.80;;;;;;;21.39;44.54;101084.16;10437896;28;20114;-82
2022/06/21 16:37:20;;;;;;;11.57;3.50;;;;;;;21.39;42.56;101054.88;10466595;28;20036;-80
2022/06/21 16:48:37;;;;;;;10.63;3.75;;;;;;;21.84;43.19;101055.13;10260559;28;20058;-81
2022/06/21 16:53:49;;;;;;;44.05;18.75;;;;;;;21.99;44.48;101040.97;10383270;28;20045;-83
2022/06/21 16:58:55;;;;;;;;;;;;;;;21.90;43.78;101040.06;10397839;28;20040;-81
2022/06/21 17:04:03;;;;;;;6.93;2.60;;;;;;;21.67;44.32;101039.06;10424602;28;19920;-81
2022/06/21 17:09:30;;;;;;;9.32;3.10;;;;;;;21.56;44.27;101044.31;10422081;28;20036;-80
2022/06/21 17:14:50;;;;;;;11.00;2.72;;;;;;;21.70;44.02;101048.84;10442726;28;20036;-81
2022/06/21 17:20:09;;;;;;;9.88;2.70;;;;;;;;;;10464233;28;20044;-85
2022/06/21 17:25:12;;;;;;;4.88;2.28;;;;;;;21.88;43.70;101052.47;10484589;28;20045;-79
2022/06/21 17:30:14;;;;;;;7.97;4.15;;;;;;;;;;10401103;28;20045;-79
2022/06/21 17:35:26;;;;;;;12.02;3.83;;;;;;;21.22;45.99;101054.78;10455330;28;20043;-79
2022/06/21 17:40:50;;;;;;;35.58;6.28;;;;;;;20.76;46.63;101060.59;10395114;28;20041;-80
2022/06/21 17:46:07;;;;;;;51.83;4.90;;;;;;;20.51;46.19;101070.13;10440512;28;20565;-78
2022/06/21 17:51:13;;;;;;;14.77;2.92;;;;;;;20.19;46.71;101076.00;10431254;28;20379;-77
2022/06/21 17:56:31;;;;;;;10.38;2.28;;;;;;;19.89;50.17;101080.94;10450287;28;20045;-77
2022/06/21 18:01:51;;;;;;;11.60;2.33;;;;;;;19.45;52.76;101081.19;10432379;28;20048;-77
2022/06/21 18:07:15;;;;;;;12.35;2.92;;;;;;;19.17;54.06;101086.09;10441435;28;20041;-77
2022/06/21 18:18:03;;;;;;;13.57;2.88;;;;;;;18.62;57.30;101090.47;10479543;28;20051;-77
2022/06/21 18:23:11;;;;;;;12.93;2.90;;;;;;;18.46;56.82;101086.63;10460792;28;20123;-78
2022/06/21 18:28:52;;;;;;;11.88;3.60;;;;;;;18.41;60.44;101082.13;10447926;28;20166;-77
2022/06/21 18:33:53;;;;;;;10.48;2.10;;;;;;;18.36;58.01;101089.09;10480298;28;20036;-78
2022/06/21 18:39:33;;;;;;;8.10;3.47;;;;;;;18.45;55.92;101084.84;10428086;28;20492;-79
2022/06/21 18:44:39;;;;;;;9.88;2.10;;;;;;;18.70;55.11;101071.16;10462643;28;20407;-78
2022/06/21 18:50:08;;;;;;;3.15;2.08;;;;;;;18.77;56.12;101083.66;10481160;28;20036;-77
2022/06/21 18:55:28;;;;;;;7.57;1.95;;;;;;;18.91;53.97;101086.53;10461289;28;20036;-78
2022/06/21 19:00:34;;;;;;;3.22;1.60;;;;;;;18.91;53.80;101086.53;10464125;28;20558;-77
2022/06/21 19:12:30;;;;;;;15.25;2.25;;;;;;;18.54;55.79;101092.09;10397271;28;1207676;-77
2022/06/21 19:17:37;;;;;;;16.73;3.03;;;;;;;18.24;57.09;101097.69;10274089;28;20046;-77
2022/06/21 19:23:03;;;;;;;23.02;2.45;;;;;;;17.98;57.40;101101.59;10446569;28;20049;-77
2022/06/21 19:28:16;;;;;;;5.38;1.95;;;;;;;17.84;56.46;101103.91;10489771;28;20385;-77
2022/06/21 19:33:32;;;;;;;5.88;2.35;;;;;;;17.42;58.55;101097.72;10430938;28;20163;-77
2022/06/21 19:39:02;;;;;;;3.42;1.70;;;;;;;16.92;59.20;101098.22;10470850;28;20442;-77
2022/06/21 19:44:50;;;;;;;4.45;1.75;;;;;;;16.47;60.25;101099.72;10473961;28;20519;-77
2022/06/21 19:49:51;;;;;;;8.43;3.33;;;;;;;16.21;61.11;101101.63;10399111;28;20124;-77
2022/06/21 19:54:51;;;;;;;11.02;3.53;;;;;;;15.89;61.79;101094.59;10453951;28;20040;-77
2022/06/21 20:00:18;;;;;;;3.35;1.73;;;;;;;15.55;62.86;101090.91;10487806;28;20041;-77
2022/06/21 20:05:26;;;;;;;4.65;1.98;;;;;;;15.14;63.89;101094.00;10464029;28;20437;-77
2022/06/21 20:10:37;;;;;;;7.43;2.97;;;;;;;15.03;64.28;101085.75;10404567;28;20572;-77
2022/06/21 20:16:06;;;;;;;8.02;3.35;;;;;;;14.99;64.04;101091.78;10417542;28;20072;-77
2022/06/21 20:21:37;;;;;;;8.18;2.30;;;;;;;14.73;64.47;101098.78;10442461;28;20354;-77
2022/06/21 20:26:47;;;;;;;17.30;3.13;;;;;;;14.35;65.32;101113.25;10469366;28;20043;-77
2022/06/21 20:32:22;;;;;;;4.75;1.73;;;;;;;14.01;66.65;101121.66;10438147;28;20036;-76
2022/06/21 20:37:25;;;;;;;6.63;2.67;;;;;;;13.69;67.53;101114.31;10439644;28;20052;-78
2022/06/21 20:48:08;;;;;;;4.45;3.13;;;;;;;13.39;68.48;101112.22;10487824;28;20048;-77
2022/06/21 20:53:20;;;;;;;6.55;3.28;;;;;;;13.22;69.82;101115.06;10435740;28;20045;-75
2022/06/21 20:58:21;;;;;;;5.55;2.10;;;;;;;13.04;71.40;101127.47;10437009;28;20048;-76
2022/06/21 21:03:21;;;;;;;4.00;1.85;;;;;;;12.86;71.59;101112.72;10393636;28;20448;-77
2022/06/21 21:08:26;;;;;;;6.90;3.40;;;;;;;12.68;72.50;101102.34;10436248;28;20056;-78
2022/06/21 21:13:30;;;;;;;7.38;2.95;;;;;;;12.54;72.67;101096.47;10428985;28;20102;-77
2022/06/21 21:18:39;;;;;;;4.18;2.60;;;;;;;12.38;73.90;101088.78;10446209;28;20396;-76
2022/06/21 21:23:41;;;;;;;7.72;3.13;;;;;;;12.26;75.22;101097.00;10453536;28;20074;-77
2022/06/21 21:28:42;;;;;;;8.02;3.38;;;;;;;12.08;76.30;101094.44;10442608;28;20042;-77
2022/06/21 21:34:00;;;;;;;4.25;1.80;;;;;;;11.79;77.73;101089.66;10460961;28;20484;-78
2022/06/21 21:39:09;;;;;;;3.22;2.25;;;;;;;11.66;78.35;101090.78;10483586;28;20068;-79
2022/06/21 21:44:13;;;;;;;10.23;1.88;;;;;;;11.51;79.95;101100.56;10467381;28;20098;-79
2022/06/21 21:49:14;;;;;;;6.03;2.13;;;;;;;11.35;80.14;101107.69;10395576;28;20037;-77
2022/06/21 21:54:15;;;;;;;7.55;2.05;;;;;;;11.20;80.98;101113.09;10410801;28;20037;-78
2022/06/21 21:59:18;;;;;;;6.35;2.70;;;;;;;11.10;82.04;101108.22;10420299;28;20041;-77
2022/06/21 22:04:18;;;;;;;6.35;2.45;;;;;;;11.01;83.02;101117.41;10448012;28;20032;-78
2022/06/21 22:09:31;;;;;;;8.20;3.85;;;;;;;10.93;83.52;101120.47;10482234;28;20434;-77
2022/06/21 22:14:37;;;;;;;4.38;3.47;;;;;;;10.90;83.79;101122.91;10469689;28;20048;-77
2022/06/21 22:19:37;;;;;;;5.68;3.00;;;;;;;10.81;83.77;101126.00;10485025;28;20037;-76
2022/06/21 22:24:38;;;;;;;7.28;3.28;;;;;;;10.76;84.10;101125.75;10465490;28;20029;-77
2022/06/21 22:29:43;;;;;;;6.45;2.38;;;;;;;10.57;83.84;101126.53;10464944;28;20127;-77
2022/06/21 22:34:43;;;;;;;4.50;2.92;;;;;;;10.44;84.92;101117.13;10425320;28;20063;-77
2022/06/21 22:39:50;;;;;;;12.23;2.83;;;;;;;10.32;86.01;101121.69;10432131;28;20036;-77
2022/06/21 22:44:56;;;;;;;7.53;3.05;;;;;;;10.24;86.20;101142.22;10464508;28;20032;-76
2022/06/21 22:50:01;;;;;;;9.90;3.17;;;;;;;10.27;86.85;101142.38;10440873;28;20508;-76
2022/06/21 22:55:02;;;;;;;14.18;3.30;;;;;;;10.26;86.98;101143.19;10449401;28;20043;-76
2022/06/21 23:00:11;;;;;;;6.35;3.47;;;;;;;10.21;87.02;101158.63;10447798;28;20488;-77
2022/06/21 23:05:25;;;;;;;6.93;3.30;;;;;;;10.14;87.64;101160.03;10465344;28;20044;-76
2022/06/21 23:10:31;;;;;;;8.45;3.97;;;;;;;10.10;88.76;101162.38;10464106;28;20119;-77
2022/06/21 23:15:34;;;;;;;5.90;3.95;;;;;;;10.05;89.05;101169.06;10450605;28;20040;-77
2022/06/21 23:20:35;;;;;;;8.88;3.53;;;;;;;10.05;89.49;101171.69;10448429;28;20048;-76
2022/06/21 23:25:37;;;;;;;11.38;5.90;;;;;;;9.91;88.97;101157.88;10448577;28;20115;-77
2022/06/21 23:30:37;;;;;;;7.72;4.20;;;;;;;9.77;89.45;101155.41;10448669;28;20043;-76
2022/06/21 23:35:38;;;;;;;9.13;4.55;;;;;;;9.72;90.14;101155.94;10446863;28;20043;-76
2022/06/21 23:40:40;;;;;;;5.93;3.83;;;;;;;9.69;90.13;101157.56;10480876;28;20071;-76
2022/06/21 23:45:41;;;;;;;8.85;3.83;;;;;;;9.58;89.82;101150.84;10447157;28;20090;-76
2022/06/21 23:50:43;;;;;;;7.72;4.57;;;;;;;9.52;90.51;101153.13;10447902;28;20174;-76
2022/06/21 23:55:43;;;;;;;11.82;6.72;;;;;;;9.57;91.64;101162.13;10447947;28;20043;-76
